createdAt,value
2019-02-04T00:00:35.763Z,2.04
2019-02-04T00:01:35.615Z,2.08
2019-02-04T00:02:35.672Z,2.02
2019-02-04T00:03:35.549Z,2.02
2019-02-04T00:04:35.623Z,2.02
2019-02-04T00:05:35.490Z,2.02
2019-02-04T00:06:35.594Z,1.94
2019-02-04T00:07:35.430Z,1.91
2019-02-04T00:08:35.503Z,1.89
2019-02-04T00:09:35.376Z,1.89
2019-02-04T00:10:35.327Z,1.90
2019-02-04T00:11:35.293Z,1.91
2019-02-04T00:12:35.445Z,1.91
2019-02-04T00:13:35.230Z,1.89
2019-02-04T00:14:35.342Z,1.87
2019-02-04T00:15:35.162Z,1.68
2019-02-04T00:16:41.013Z,1.79
2019-02-04T00:17:35.370Z,1.82
2019-02-04T00:18:35.073Z,1.82
2019-02-04T00:19:35.171Z,1.85
2019-02-04T00:20:35.012Z,1.83
2019-02-04T00:21:34.972Z,1.83
2019-02-04T00:22:34.946Z,1.83
2019-02-04T00:23:35.102Z,1.89
2019-02-04T00:24:34.882Z,1.80
2019-02-04T00:25:35.023Z,1.78
2019-02-04T00:26:34.811Z,1.79
2019-02-04T00:27:34.795Z,1.72
2019-02-04T00:28:34.932Z,1.79
2019-02-04T00:29:34.721Z,1.82
2019-02-04T00:30:34.843Z,1.76
2019-02-04T00:31:34.656Z,1.71
2019-02-04T00:32:34.623Z,1.73
2019-02-04T00:33:34.609Z,1.69
2019-02-04T00:34:34.672Z,1.79
2019-02-04T00:35:34.532Z,1.75
2019-02-04T00:36:34.686Z,1.79
2019-02-04T00:37:34.465Z,1.69
2019-02-04T00:38:34.432Z,1.75
2019-02-04T00:39:34.601Z,1.65
2019-02-04T00:40:34.373Z,1.75
2019-02-04T00:41:34.513Z,1.75
2019-02-04T00:42:34.324Z,1.69
2019-02-04T00:43:34.426Z,1.73
2019-02-04T00:44:34.245Z,1.71
2019-02-04T00:45:34.345Z,1.78
2019-02-04T00:46:34.180Z,1.69
2019-02-04T00:47:34.352Z,1.71
2019-02-04T00:48:34.123Z,1.65
2019-02-04T00:49:34.088Z,1.64
2019-02-04T00:50:34.059Z,1.64
2019-02-04T00:51:34.173Z,1.72
2019-02-04T00:52:33.996Z,1.64
2019-02-04T00:53:34.081Z,1.73
2019-02-04T00:54:33.933Z,1.75
2019-02-04T00:55:33.896Z,1.72
2019-02-04T00:56:34.002Z,1.75
2019-02-04T00:57:33.833Z,1.82
2019-02-04T00:58:33.996Z,1.71
2019-02-04T00:59:33.760Z,1.68
2019-02-04T01:00:33.733Z,1.69
2019-02-04T01:01:33.704Z,1.71
2019-02-04T01:02:33.849Z,1.71
2019-02-04T01:03:33.652Z,1.57
2019-02-04T01:04:33.655Z,1.55
2019-02-04T01:05:33.574Z,1.72
2019-02-04T01:06:33.544Z,1.62
2019-02-04T01:07:33.571Z,1.71
2019-02-04T01:08:33.482Z,1.69
2019-02-04T01:09:33.484Z,1.68
2019-02-04T01:10:33.417Z,1.64
2019-02-04T01:11:33.381Z,1.68
2019-02-04T01:12:33.352Z,1.65
2019-02-04T01:13:33.411Z,1.65
2019-02-04T01:14:33.282Z,1.64
2019-02-04T01:15:33.325Z,1.55
2019-02-04T01:16:33.233Z,1.68
2019-02-04T01:17:33.198Z,1.57
2019-02-04T01:18:33.241Z,1.57
2019-02-04T01:19:33.129Z,1.54
2019-02-04T01:20:33.143Z,1.58
2019-02-04T01:21:33.061Z,1.47
2019-02-04T01:22:33.031Z,1.51
2019-02-04T01:23:33.004Z,1.54
2019-02-04T01:24:33.074Z,1.52
2019-02-04T01:25:32.934Z,1.47
2019-02-04T01:26:32.991Z,1.57
2019-02-04T01:27:32.885Z,1.50
2019-02-04T01:28:32.846Z,1.52
2019-02-04T01:29:32.802Z,1.60
2019-02-04T01:30:32.946Z,1.58
2019-02-04T01:31:32.746Z,1.55
2019-02-04T01:32:32.825Z,1.55
2019-02-04T01:33:32.682Z,1.60
2019-02-04T01:34:32.743Z,1.60
2019-02-04T01:35:32.612Z,1.60
2019-02-04T01:36:32.652Z,1.60
2019-02-04T01:37:32.555Z,1.55
2019-02-04T01:38:32.662Z,1.55
2019-02-04T01:39:32.570Z,1.47
2019-02-04T01:40:32.452Z,1.55
2019-02-04T01:41:33.351Z,1.54
2019-02-04T01:42:32.409Z,1.47
2019-02-04T01:43:32.493Z,1.50
2019-02-04T01:44:32.343Z,1.51
2019-02-04T01:45:32.295Z,1.46
2019-02-04T01:46:32.413Z,1.52
2019-02-04T01:47:32.234Z,1.55
2019-02-04T01:48:32.321Z,1.50
2019-02-04T01:49:32.163Z,1.50
2019-02-04T01:50:32.172Z,1.55
2019-02-04T01:51:32.101Z,1.52
2019-02-04T01:52:32.152Z,1.51
2019-02-04T01:53:32.034Z,1.51
2019-02-04T01:54:32.166Z,1.57
2019-02-04T01:55:31.974Z,1.40
2019-02-04T01:56:31.957Z,1.51
2019-02-04T01:57:31.990Z,1.51
2019-02-04T01:58:31.872Z,1.50
2019-02-04T01:59:32.012Z,1.51
2019-02-04T02:00:31.816Z,1.46
2019-02-04T02:01:31.783Z,1.47
2019-02-04T02:02:31.740Z,1.43
2019-02-04T02:03:31.826Z,1.42
2019-02-04T02:04:31.691Z,1.46
2019-02-04T02:05:31.750Z,1.50
2019-02-04T02:06:31.623Z,1.50
2019-02-04T02:07:31.594Z,1.50
2019-02-04T02:08:31.552Z,1.55
2019-02-04T02:09:31.653Z,1.54
2019-02-04T02:10:31.520Z,1.46
2019-02-04T02:11:31.572Z,1.58
2019-02-04T02:12:31.424Z,1.47
2019-02-04T02:13:31.492Z,1.55
2019-02-04T02:14:31.373Z,1.61
2019-02-04T02:15:31.493Z,1.55
2019-02-04T02:16:31.310Z,1.52
2019-02-04T02:17:31.406Z,1.58
2019-02-04T02:18:31.424Z,1.60
2019-02-04T02:19:31.205Z,1.58
2019-02-04T02:20:31.323Z,1.52
2019-02-04T02:21:31.132Z,1.57
2019-02-04T02:22:31.244Z,1.51
2019-02-04T02:23:31.083Z,1.50
2019-02-04T02:24:31.031Z,1.51
2019-02-04T02:25:31.163Z,1.51
2019-02-04T02:26:30.975Z,1.50
2019-02-04T02:27:31.075Z,1.51
2019-02-04T02:28:30.913Z,1.50
2019-02-04T02:29:30.897Z,1.52
2019-02-04T02:30:31.009Z,1.55
2019-02-04T02:31:30.994Z,1.42
2019-02-04T02:32:30.795Z,1.44
2019-02-04T02:33:30.918Z,1.46
2019-02-04T02:34:30.712Z,1.43
2019-02-04T02:35:30.684Z,1.42
2019-02-04T02:36:30.825Z,1.42
2019-02-04T02:37:30.694Z,1.46
2019-02-04T02:38:30.758Z,1.39
2019-02-04T02:39:30.558Z,1.46
2019-02-04T02:40:30.525Z,1.44
2019-02-04T02:41:30.493Z,1.47
2019-02-04T02:42:30.576Z,1.40
2019-02-04T02:43:30.432Z,1.43
2019-02-04T02:44:30.574Z,1.39
2019-02-04T02:45:30.373Z,1.42
2019-02-04T02:46:30.333Z,1.43
2019-02-04T02:47:38.148Z,1.43
2019-02-04T02:48:30.279Z,1.46
2019-02-04T02:49:30.437Z,1.40
2019-02-04T02:50:30.204Z,1.47
2019-02-04T02:51:30.181Z,1.33
2019-02-04T02:52:30.145Z,1.39
2019-02-04T02:53:30.231Z,1.29
2019-02-04T02:54:30.074Z,1.39
2019-02-04T02:55:30.360Z,1.39
2019-02-04T02:56:30.013Z,1.36
2019-02-04T02:57:29.984Z,1.33
2019-02-04T02:58:30.181Z,1.29
2019-02-04T02:59:29.910Z,1.33
2019-02-04T03:00:30.075Z,1.37
2019-02-04T03:01:29.838Z,1.39
2019-02-04T03:02:29.994Z,1.26
2019-02-04T03:03:29.786Z,1.39
2019-02-04T03:04:29.912Z,1.32
2019-02-04T03:05:29.726Z,1.32
2019-02-04T03:06:29.826Z,1.24
2019-02-04T03:07:29.652Z,1.33
2019-02-04T03:08:29.621Z,1.33
2019-02-04T03:09:29.591Z,1.40
2019-02-04T03:10:29.648Z,1.29
2019-02-04T03:11:29.522Z,1.36
2019-02-04T03:12:29.550Z,1.24
2019-02-04T03:13:29.460Z,1.18
2019-02-04T03:14:29.421Z,1.21
2019-02-04T03:15:29.460Z,1.22
2019-02-04T03:16:29.361Z,1.28
2019-02-04T03:17:29.390Z,1.25
2019-02-04T03:18:29.329Z,1.26
2019-02-04T03:19:29.273Z,1.25
2019-02-04T03:20:29.250Z,1.22
2019-02-04T03:21:29.302Z,1.32
2019-02-04T03:22:29.169Z,1.32
2019-02-04T03:23:29.212Z,1.21
2019-02-04T03:24:29.122Z,1.36
2019-02-04T03:25:29.071Z,1.25
2019-02-04T03:26:29.131Z,1.21
2019-02-04T03:27:28.999Z,1.37
2019-02-04T03:28:29.042Z,1.25
2019-02-04T03:29:28.952Z,1.26
2019-02-04T03:30:29.157Z,1.36
2019-02-04T03:31:28.871Z,1.36
2019-02-04T03:32:28.974Z,1.26
2019-02-04T03:33:28.815Z,1.24
2019-02-04T03:34:28.891Z,1.29
2019-02-04T03:35:28.750Z,1.24
2019-02-04T03:36:28.709Z,1.28
2019-02-04T03:37:28.802Z,1.32
2019-02-04T03:38:28.654Z,1.33
2019-02-04T03:39:28.711Z,1.33
2019-02-04T03:40:28.579Z,1.36
2019-02-04T03:41:28.616Z,1.37
2019-02-04T03:42:28.521Z,1.34
2019-02-04T03:43:28.642Z,1.26
2019-02-04T03:44:28.463Z,1.29
2019-02-04T03:45:28.561Z,1.36
2019-02-04T03:46:28.393Z,1.34
2019-02-04T03:47:28.360Z,1.26
2019-02-04T03:48:28.344Z,1.25
2019-02-04T03:49:28.382Z,1.24
2019-02-04T03:50:28.269Z,1.33
2019-02-04T03:51:28.299Z,1.24
2019-02-04T03:52:28.191Z,1.29
2019-02-04T03:53:28.302Z,1.22
2019-02-04T03:54:28.142Z,1.32
2019-02-04T03:55:28.224Z,1.24
2019-02-04T03:56:28.076Z,1.29
2019-02-04T03:57:28.132Z,1.18
2019-02-04T03:58:27.998Z,1.26
2019-02-04T03:59:28.041Z,1.24
2019-02-04T04:00:27.942Z,1.29
2019-02-04T04:01:28.049Z,1.22
2019-02-04T04:02:27.871Z,1.28
2019-02-04T04:03:27.911Z,1.22
2019-02-04T04:04:27.811Z,1.21
2019-02-04T04:05:27.871Z,1.21
2019-02-04T04:06:27.754Z,1.14
2019-02-04T04:07:27.796Z,1.10
2019-02-04T04:08:27.683Z,1.14
2019-02-04T04:09:27.652Z,1.03
2019-02-04T04:10:27.610Z,1.10
2019-02-04T04:11:27.712Z,1.15
2019-02-04T04:12:27.548Z,1.10
2019-02-04T04:13:27.620Z,1.06
2019-02-04T04:14:27.481Z,1.15
2019-02-04T04:15:27.462Z,1.10
2019-02-04T04:16:27.541Z,1.18
2019-02-04T04:17:27.392Z,1.18
2019-02-04T04:18:27.454Z,1.15
2019-02-04T04:19:27.323Z,1.04
2019-02-04T04:20:27.293Z,1.03
2019-02-04T04:21:27.261Z,1.07
2019-02-04T04:22:27.383Z,1.08
2019-02-04T04:23:27.193Z,1.04
2019-02-04T04:24:27.291Z,1.07
2019-02-04T04:25:27.140Z,1.00
2019-02-04T04:26:27.100Z,1.06
2019-02-04T04:27:27.225Z,1.04
2019-02-04T04:28:27.041Z,1.12
2019-02-04T04:29:27.122Z,1.19
2019-02-04T04:30:26.971Z,1.08
2019-02-04T04:31:26.931Z,1.14
2019-02-04T04:32:26.915Z,1.14
2019-02-04T04:33:27.048Z,1.01
2019-02-04T04:34:26.843Z,1.12
2019-02-04T04:35:26.960Z,1.07
2019-02-04T04:36:26.790Z,1.03
2019-02-04T04:37:26.756Z,1.06
2019-02-04T04:38:26.881Z,1.07
2019-02-04T04:39:26.685Z,1.03
2019-02-04T04:40:26.797Z,1.04
2019-02-04T04:41:26.615Z,1.00
2019-02-04T04:42:26.701Z,1.06
2019-02-04T04:43:26.553Z,1.08
2019-02-04T04:44:26.722Z,1.07
2019-02-04T04:45:26.492Z,1.04
2019-02-04T04:46:26.631Z,1.04
2019-02-04T04:47:26.433Z,1.00
2019-02-04T04:48:26.930Z,0.92
2019-02-04T04:49:26.350Z,0.90
2019-02-04T04:50:26.454Z,0.88
2019-02-04T04:51:26.303Z,0.88
2019-02-04T04:52:26.363Z,0.96
2019-02-04T04:53:26.235Z,0.88
2019-02-04T04:54:26.204Z,0.88
2019-02-04T04:55:26.283Z,0.86
2019-02-04T04:56:26.130Z,0.85
2019-02-04T04:57:26.300Z,0.88
2019-02-04T04:58:26.065Z,0.83
2019-02-04T04:59:26.042Z,0.82
2019-02-04T05:00:26.002Z,0.90
2019-02-04T05:01:26.128Z,0.79
2019-02-04T05:02:25.943Z,0.85
2019-02-04T05:03:26.032Z,0.83
2019-02-04T05:04:25.872Z,0.80
2019-02-04T05:05:25.840Z,0.86
2019-02-04T05:06:25.950Z,0.83
2019-02-04T05:07:25.790Z,0.78
2019-02-04T05:08:25.972Z,0.78
2019-02-04T05:09:25.715Z,0.80
2019-02-04T05:10:25.673Z,0.72
2019-02-04T05:11:25.653Z,0.78
2019-02-04T05:12:25.694Z,0.72
2019-02-04T05:13:25.581Z,0.70
2019-02-04T05:14:25.602Z,0.60
2019-02-04T05:15:25.520Z,0.71
2019-02-04T05:16:25.491Z,0.62
2019-02-04T05:17:25.451Z,0.65
2019-02-04T05:18:25.533Z,0.61
2019-02-04T05:19:25.397Z,0.57
2019-02-04T05:20:25.444Z,0.52
2019-02-04T05:21:25.325Z,0.49
2019-02-04T05:22:25.351Z,0.48
2019-02-04T05:23:25.251Z,0.46
2019-02-04T05:24:25.261Z,0.43
2019-02-04T05:25:25.197Z,0.38
2019-02-04T05:26:25.270Z,0.34
2019-02-04T05:27:25.169Z,0.28
2019-02-04T05:28:25.100Z,0.31
2019-02-04T05:29:25.195Z,0.25
2019-02-04T05:30:25.034Z,0.24
2019-02-04T05:31:25.122Z,0.25
2019-02-04T05:32:24.972Z,0.25
2019-02-04T05:33:24.929Z,0.16
2019-02-04T05:34:25.020Z,0.21
2019-02-04T05:35:24.870Z,0.18
2019-02-04T05:36:24.945Z,0.30
2019-02-04T05:37:24.809Z,0.13
2019-02-04T05:38:24.781Z,0.13
2019-02-04T05:39:24.748Z,0.21
2019-02-04T05:40:24.762Z,0.15
2019-02-04T05:41:24.678Z,0.05
2019-02-04T05:42:24.771Z,0.13
2019-02-04T05:43:24.611Z,0.10
2019-02-04T05:44:24.582Z,0.05
2019-02-04T05:45:24.594Z,0.06
2019-02-04T05:46:24.510Z,0.07
2019-02-04T05:47:24.613Z,0.05
2019-02-04T05:48:24.452Z,0.06
2019-02-04T05:49:24.412Z,0.13
2019-02-04T05:50:24.397Z,0.09
2019-02-04T05:51:24.436Z,0.02
2019-02-04T05:52:24.325Z,0.07
2019-02-04T05:53:24.442Z,0.05
2019-02-04T05:54:24.253Z,0.05
2019-02-04T05:55:24.211Z,0.05
2019-02-04T05:56:24.184Z,0.09
2019-02-04T05:57:24.273Z,0.07
2019-02-04T05:58:24.129Z,0.06
2019-02-04T05:59:24.183Z,0.10
2019-02-04T06:00:24.052Z,0.07
2019-02-04T06:01:24.196Z,0.05
2019-02-04T06:02:23.991Z,0.10
2019-02-04T06:03:24.101Z,0.10
2019-02-04T06:04:23.926Z,0.02
2019-02-04T06:05:24.014Z,0.03
2019-02-04T06:06:24.019Z,-0.05
2019-02-04T06:07:23.842Z,0.09
2019-02-04T06:08:23.932Z,-0.04
2019-02-04T06:09:23.785Z,-0.08
2019-02-04T06:10:23.841Z,-0.04
2019-02-04T06:11:23.704Z,-0.05
2019-02-04T06:12:23.763Z,-0.05
2019-02-04T06:13:23.630Z,0.00
2019-02-04T06:14:23.677Z,0.02
2019-02-04T06:15:23.581Z,-0.04
2019-02-04T06:16:23.685Z,-0.01
2019-02-04T06:17:23.594Z,0.02
2019-02-04T06:18:23.472Z,-0.09
2019-02-04T06:19:23.605Z,-0.04
2019-02-04T06:20:23.405Z,-0.05
2019-02-04T06:21:23.519Z,-0.06
2019-02-04T06:22:23.350Z,-0.05
2019-02-04T06:23:23.421Z,-0.01
2019-02-04T06:24:23.270Z,-0.06
2019-02-04T06:25:23.353Z,0.06
2019-02-04T06:26:23.211Z,-0.05
2019-02-04T06:27:23.361Z,-0.05
2019-02-04T06:28:23.262Z,0.03
2019-02-04T06:29:23.122Z,0.00
2019-02-04T06:30:23.171Z,-0.12
2019-02-04T06:31:23.042Z,-0.11
2019-02-04T06:32:23.184Z,-0.12
2019-02-04T06:33:22.994Z,-0.13
2019-02-04T06:34:22.949Z,-0.18
2019-02-04T06:35:23.180Z,-0.01
2019-02-04T06:36:22.883Z,-0.19
2019-02-04T06:37:23.015Z,-0.13
2019-02-04T06:38:22.820Z,-0.05
2019-02-04T06:39:22.792Z,-0.05
2019-02-04T06:40:22.751Z,-0.08
2019-02-04T06:41:22.840Z,-0.05
2019-02-04T06:42:22.684Z,0.00
2019-02-04T06:43:22.750Z,-0.04
2019-02-04T06:44:22.632Z,-0.08
2019-02-04T06:45:22.591Z,-0.04
2019-02-04T06:46:22.689Z,-0.18
2019-02-04T06:47:22.535Z,-0.16
2019-02-04T06:48:22.683Z,-0.15
2019-02-04T06:49:22.461Z,0.02
2019-02-04T06:50:22.422Z,-0.05
2019-02-04T06:51:22.393Z,-0.04
2019-02-04T06:52:22.508Z,-0.05
2019-02-04T06:53:22.342Z,-0.01
2019-02-04T06:54:22.421Z,0.03
2019-02-04T06:55:22.269Z,0.10
2019-02-04T06:56:22.231Z,0.05
2019-02-04T06:57:22.195Z,0.02
2019-02-04T06:58:22.341Z,0.13
2019-02-04T06:59:22.132Z,0.09
2019-02-04T07:00:22.263Z,0.10
2019-02-04T07:01:22.061Z,0.10
2019-02-04T07:02:22.171Z,0.09
2019-02-04T07:03:22.008Z,0.12
2019-02-04T07:04:22.079Z,0.15
2019-02-04T07:05:21.942Z,0.23
2019-02-04T07:06:22.092Z,0.12
2019-02-04T07:07:22.008Z,0.10
2019-02-04T07:08:21.858Z,0.12
2019-02-04T07:09:21.913Z,0.12
2019-02-04T07:10:21.771Z,0.15
2019-02-04T07:11:21.823Z,0.13
2019-02-04T07:12:21.700Z,0.13
2019-02-04T07:13:21.677Z,0.18
2019-02-04T07:14:21.733Z,0.23
2019-02-04T07:15:21.661Z,0.24
2019-02-04T07:16:21.644Z,0.13
2019-02-04T07:17:21.543Z,0.24
2019-02-04T07:18:21.513Z,0.27
2019-02-04T07:19:24.256Z,0.27
2019-02-04T07:20:21.467Z,0.25
2019-02-04T07:21:21.423Z,0.27
2019-02-04T07:22:21.482Z,0.31
2019-02-04T07:23:21.352Z,0.34
2019-02-04T07:24:21.319Z,0.41
2019-02-04T07:25:21.399Z,0.39
2019-02-04T07:26:21.253Z,0.38
2019-02-04T07:27:22.532Z,0.36
2019-02-04T07:28:21.182Z,0.39
2019-02-04T07:29:21.153Z,0.38
2019-02-04T07:30:21.124Z,0.41
2019-02-04T07:31:21.121Z,0.39
2019-02-04T07:32:21.053Z,0.38
2019-02-04T07:33:21.042Z,0.39
2019-02-04T07:34:20.992Z,0.41
2019-02-04T07:35:20.954Z,0.34
2019-02-04T07:36:20.919Z,0.43
2019-02-04T07:37:20.960Z,0.39
2019-02-04T07:38:20.862Z,0.36
2019-02-04T07:39:20.872Z,0.34
2019-02-04T07:40:20.803Z,0.41
2019-02-04T07:41:20.782Z,0.36
2019-02-04T07:42:21.736Z,0.38
2019-02-04T07:43:20.792Z,0.36
2019-02-04T07:44:20.664Z,0.36
2019-02-04T07:45:20.711Z,0.38
2019-02-04T07:46:20.602Z,0.41
2019-02-04T07:47:20.648Z,0.43
2019-02-04T07:48:20.545Z,0.45
2019-02-04T07:49:20.538Z,0.43
2019-02-04T07:50:20.535Z,0.43
2019-02-04T07:51:20.532Z,0.48
2019-02-04T07:52:20.404Z,0.46
2019-02-04T07:53:20.452Z,0.48
2019-02-04T07:54:20.343Z,0.48
2019-02-04T07:55:20.361Z,0.46
2019-02-04T07:56:20.273Z,0.62
2019-02-04T07:57:20.241Z,0.60
2019-02-04T07:58:20.202Z,0.57
2019-02-04T07:59:20.283Z,0.62
2019-02-04T08:00:20.127Z,0.58
2019-02-04T08:01:20.242Z,0.68
2019-02-04T08:02:20.082Z,0.67
2019-02-04T08:03:20.153Z,0.68
2019-02-04T08:04:20.015Z,0.67
2019-02-04T08:05:20.065Z,0.80
2019-02-04T08:06:19.949Z,0.80
2019-02-04T08:07:20.084Z,0.79
2019-02-04T08:08:19.982Z,0.82
2019-02-04T08:09:19.852Z,0.83
2019-02-04T08:10:19.895Z,0.83
2019-02-04T08:11:19.781Z,0.88
2019-02-04T08:12:19.802Z,0.89
2019-02-04T08:13:19.720Z,0.85
2019-02-04T08:14:19.733Z,0.92
2019-02-04T08:15:19.666Z,0.88
2019-02-04T08:16:19.732Z,0.89
2019-02-04T08:17:19.591Z,0.97
2019-02-04T08:18:19.642Z,0.98
2019-02-04T08:19:19.652Z,1.01
2019-02-04T08:20:22.473Z,1.04
2019-02-04T08:21:19.562Z,1.04
2019-02-04T08:22:19.438Z,1.08
2019-02-04T08:23:19.472Z,1.08
2019-02-04T08:24:19.528Z,1.16
2019-02-04T08:25:19.340Z,1.16
2019-02-04T08:26:19.391Z,1.10
2019-02-04T08:27:19.274Z,1.12
2019-02-04T08:28:19.390Z,1.12
2019-02-04T08:29:19.224Z,1.19
2019-02-04T08:30:19.185Z,1.24
2019-02-04T08:31:19.231Z,1.29
2019-02-04T08:32:19.117Z,1.33
2019-02-04T08:33:19.131Z,1.32
2019-02-04T08:34:19.051Z,1.39
2019-02-04T08:35:19.054Z,1.33
2019-02-04T08:36:19.170Z,1.46
2019-02-04T08:37:18.950Z,1.42
2019-02-04T08:38:18.961Z,1.44
2019-02-04T08:39:18.893Z,1.39
2019-02-04T08:40:18.879Z,1.52
2019-02-04T08:41:18.820Z,1.50
2019-02-04T08:42:18.888Z,1.51
2019-02-04T08:43:18.770Z,1.52
2019-02-04T08:44:18.799Z,1.62
2019-02-04T08:45:18.692Z,1.60
2019-02-04T08:46:18.659Z,1.57
2019-02-04T08:47:22.715Z,1.64
2019-02-04T08:48:18.600Z,1.62
2019-02-04T08:49:18.631Z,1.65
2019-02-04T08:50:18.543Z,1.65
2019-02-04T08:51:18.502Z,1.64
2019-02-04T08:52:18.471Z,1.61
2019-02-04T08:53:18.561Z,1.65
2019-02-04T08:54:18.414Z,1.75
2019-02-04T08:55:18.469Z,1.69
2019-02-04T08:56:18.341Z,1.69
2019-02-04T08:57:18.312Z,1.82
2019-02-04T08:58:18.393Z,1.80
2019-02-04T08:59:18.251Z,1.90
2019-02-04T09:00:18.301Z,1.79
2019-02-04T09:01:18.203Z,1.83
2019-02-04T09:02:18.152Z,1.87
2019-02-04T09:03:18.184Z,1.90
2019-02-04T09:04:18.155Z,1.83
2019-02-04T09:05:18.075Z,1.94
2019-02-04T09:06:18.140Z,1.89
2019-02-04T09:07:17.992Z,1.99
2019-02-04T09:08:18.052Z,1.99
2019-02-04T09:09:17.943Z,2.09
2019-02-04T09:10:17.961Z,2.10
2019-02-04T09:11:17.880Z,2.13
2019-02-04T09:12:17.873Z,2.06
2019-02-04T09:13:17.895Z,2.19
2019-02-04T09:14:17.770Z,2.23
2019-02-04T09:15:17.791Z,2.20
2019-02-04T09:16:17.725Z,2.34
2019-02-04T09:17:17.714Z,2.31
2019-02-04T09:18:17.651Z,2.37
2019-02-04T09:19:17.720Z,2.41
2019-02-04T09:20:17.587Z,2.33
2019-02-04T09:21:17.629Z,2.40
2019-02-04T09:22:17.522Z,2.46
2019-02-04T09:23:17.556Z,2.51
2019-02-04T09:24:17.461Z,2.53
2019-02-04T09:25:17.473Z,2.63
2019-02-04T09:26:17.406Z,2.66
2019-02-04T09:27:17.470Z,2.73
2019-02-04T09:28:17.362Z,2.82
2019-02-04T09:29:17.311Z,2.84
2019-02-04T09:30:17.272Z,2.97
2019-02-04T09:31:17.294Z,2.97
2019-02-04T09:32:17.222Z,3.12
2019-02-04T09:33:24.528Z,3.12
2019-02-04T09:35:21.261Z,3.31
2019-02-04T09:36:21.159Z,3.30
2019-02-04T09:37:21.229Z,3.54
2019-02-04T09:38:21.151Z,3.58
2019-02-04T09:39:21.141Z,3.57
2019-02-04T09:40:21.165Z,3.65
2019-02-04T09:41:21.011Z,3.64
2019-02-04T09:42:21.062Z,3.76
2019-02-04T09:43:20.939Z,3.78
2019-02-04T09:44:20.968Z,3.88
2019-02-04T09:45:24.250Z,3.89
2019-02-04T09:46:20.880Z,4.01
2019-02-04T09:47:20.831Z,3.98
2019-02-04T09:48:20.891Z,4.08
2019-02-04T09:49:20.759Z,4.15
2019-02-04T09:50:22.055Z,4.16
2019-02-04T09:51:20.821Z,4.22
2019-02-04T09:52:20.671Z,4.19
2019-02-04T09:53:20.721Z,4.24
2019-02-04T09:54:20.599Z,4.25
2019-02-04T09:55:20.630Z,4.26
2019-02-04T09:56:20.550Z,4.39
2019-02-04T09:57:20.522Z,4.44
2019-02-04T09:58:20.560Z,4.62
2019-02-04T09:59:20.490Z,4.65
2019-02-04T10:00:20.473Z,4.75
2019-02-04T10:01:20.390Z,4.84
2019-02-04T10:02:20.372Z,5.01
2019-02-04T10:03:20.369Z,5.05
2019-02-04T10:04:20.322Z,5.14
2019-02-04T10:05:20.380Z,5.16
2019-02-04T10:06:20.254Z,5.25
2019-02-04T10:07:20.218Z,5.40
2019-02-04T10:08:20.200Z,5.57
2019-02-04T10:09:20.198Z,5.50
2019-02-04T10:10:20.141Z,5.60
2019-02-04T10:11:20.122Z,5.67
2019-02-04T10:12:20.069Z,5.70
2019-02-04T10:13:20.132Z,5.66
2019-02-04T10:14:20.035Z,5.75
2019-02-04T10:15:20.054Z,5.82
2019-02-04T10:16:19.962Z,5.73
2019-02-04T10:17:19.968Z,5.70
2019-02-04T10:18:19.975Z,5.83
2019-02-04T10:19:19.869Z,5.77
2019-02-04T10:20:19.902Z,5.75
2019-02-04T10:21:19.819Z,5.81
2019-02-04T10:22:19.903Z,5.78
2019-02-04T10:23:19.784Z,5.75
2019-02-04T10:24:19.810Z,5.83
2019-02-04T10:25:19.711Z,5.85
2019-02-04T10:26:19.738Z,5.75
2019-02-04T10:27:19.683Z,5.83
2019-02-04T10:28:19.753Z,5.92
2019-02-04T10:29:19.625Z,6.01
2019-02-04T10:30:19.619Z,6.11
2019-02-04T10:31:19.560Z,6.16
2019-02-04T10:32:19.594Z,6.18
2019-02-04T10:33:19.522Z,6.22
2019-02-04T10:34:19.489Z,6.03
2019-02-04T10:35:19.419Z,6.04
2019-02-04T10:36:19.462Z,6.13
2019-02-04T10:37:19.405Z,6.13
2019-02-04T10:38:19.414Z,6.09
2019-02-04T10:39:19.325Z,6.30
2019-02-04T10:40:19.337Z,6.21
2019-02-04T10:41:19.294Z,6.28
2019-02-04T10:42:19.250Z,6.46
2019-02-04T10:43:19.335Z,6.65
2019-02-04T10:44:19.218Z,6.71
2019-02-04T10:45:19.143Z,6.71
2019-02-04T10:46:19.209Z,6.65
2019-02-04T10:47:19.134Z,6.77
2019-02-04T10:48:19.120Z,6.95
2019-02-04T10:49:19.039Z,7.41
2019-02-04T10:50:19.078Z,7.53
2019-02-04T10:51:19.003Z,7.42
2019-02-04T10:52:19.040Z,7.40
2019-02-04T10:53:18.922Z,7.35
2019-02-04T10:54:18.997Z,7.72
2019-02-04T10:55:18.903Z,7.85
2019-02-04T10:56:18.859Z,8.07
2019-02-04T10:57:18.871Z,8.17
2019-02-04T10:58:18.817Z,8.20
2019-02-04T10:59:18.886Z,8.37
2019-02-04T11:00:18.786Z,8.35
2019-02-04T11:01:18.750Z,8.10
2019-02-04T11:02:18.713Z,8.11
2019-02-04T11:03:20.107Z,8.40
2019-02-04T11:04:18.640Z,8.71
2019-02-04T11:05:18.753Z,8.68
2019-02-04T11:06:18.601Z,8.99
2019-02-04T11:07:18.633Z,8.78
2019-02-04T11:08:18.675Z,8.40
2019-02-04T11:09:18.570Z,8.60
2019-02-04T11:10:18.542Z,8.12
2019-02-04T11:11:18.476Z,8.08
2019-02-04T11:12:18.466Z,8.12
2019-02-04T11:13:18.483Z,8.22
2019-02-04T11:14:18.411Z,8.72
2019-02-04T11:15:18.482Z,8.48
2019-02-04T11:16:18.356Z,8.20
2019-02-04T11:17:18.412Z,8.22
2019-02-04T11:18:18.352Z,8.47
2019-02-04T11:19:18.391Z,8.47
2019-02-04T11:20:18.398Z,8.51
2019-02-04T11:21:18.330Z,8.53
2019-02-04T11:22:18.254Z,8.50
2019-02-04T11:23:18.193Z,8.55
2019-02-04T11:24:18.169Z,8.14
2019-02-04T11:25:18.266Z,8.08
2019-02-04T11:26:18.139Z,8.20
2019-02-04T11:27:18.176Z,8.11
2019-02-04T11:28:18.100Z,7.82
2019-02-04T11:29:18.821Z,7.82
2019-02-04T11:30:18.076Z,7.89
2019-02-04T11:31:18.165Z,8.12
2019-02-04T11:32:18.031Z,8.33
2019-02-04T11:33:18.072Z,8.15
2019-02-04T11:34:17.940Z,8.25
2019-02-04T11:35:17.985Z,8.47
2019-02-04T11:36:17.944Z,8.30
2019-02-04T11:37:17.895Z,8.75
2019-02-04T11:38:17.831Z,8.86
2019-02-04T11:39:17.929Z,9.31
2019-02-04T11:40:17.830Z,9.23
2019-02-04T11:41:17.822Z,9.10
2019-02-04T11:42:17.823Z,9.15
2019-02-04T11:43:17.778Z,9.52
2019-02-04T11:44:17.785Z,9.64
2019-02-04T11:45:17.683Z,9.73
2019-02-04T11:46:17.763Z,9.42
2019-02-04T11:47:17.657Z,9.53
2019-02-04T11:48:17.768Z,9.60
2019-02-04T11:49:17.592Z,9.81
2019-02-04T11:50:17.661Z,9.88
2019-02-04T11:51:17.572Z,9.88
2019-02-04T11:52:17.530Z,9.63
2019-02-04T11:53:17.582Z,9.73
2019-02-04T11:54:17.480Z,9.83
2019-02-04T11:55:18.513Z,9.24
2019-02-04T11:56:17.433Z,9.28
2019-02-04T11:57:17.422Z,8.97
2019-02-04T11:58:17.411Z,8.96
2019-02-04T11:59:17.370Z,9.27
2019-02-04T12:00:17.438Z,9.15
2019-02-04T12:01:17.331Z,9.32
2019-02-04T12:02:17.311Z,9.50
2019-02-04T12:03:17.287Z,9.57
2019-02-04T12:04:17.344Z,9.81
2019-02-04T12:05:17.246Z,9.99
2019-02-04T12:06:17.639Z,9.75
2019-02-04T12:07:17.202Z,9.68
2019-02-04T12:08:17.171Z,9.46
2019-02-04T12:09:17.172Z,9.45
2019-02-04T12:10:17.142Z,9.38
2019-02-04T12:11:17.186Z,9.31
2019-02-04T12:12:17.092Z,9.48
2019-02-04T12:13:17.073Z,9.40
2019-02-04T12:14:17.062Z,9.46
2019-02-04T12:15:17.114Z,9.45
2019-02-04T12:16:17.011Z,8.90
2019-02-04T12:17:17.011Z,8.62
2019-02-04T12:18:16.981Z,8.71
2019-02-04T12:19:16.941Z,8.48
2019-02-04T12:20:17.033Z,8.33
2019-02-04T12:21:21.563Z,8.26
2019-02-04T12:22:16.944Z,8.20
2019-02-04T12:23:16.852Z,8.12
2019-02-04T12:24:16.851Z,8.18
2019-02-04T12:25:16.813Z,7.87
2019-02-04T12:26:16.882Z,7.79
2019-02-04T12:27:16.762Z,7.53
2019-02-04T12:28:16.783Z,7.56
2019-02-04T12:29:16.711Z,7.60
2019-02-04T12:30:16.691Z,7.56
2019-02-04T12:31:16.672Z,7.56
2019-02-04T12:32:16.681Z,7.52
2019-02-04T12:33:16.623Z,7.71
2019-02-04T12:34:16.681Z,7.55
2019-02-04T12:35:16.570Z,7.75
2019-02-04T12:36:16.663Z,7.69
2019-02-04T12:37:16.603Z,7.69
2019-02-04T12:38:16.504Z,7.52
2019-02-04T12:39:16.513Z,7.52
2019-02-04T12:40:16.478Z,7.53
2019-02-04T12:41:16.422Z,7.44
2019-02-04T12:42:16.403Z,7.34
2019-02-04T12:43:16.444Z,7.24
2019-02-04T12:44:16.351Z,7.24
2019-02-04T12:45:16.356Z,7.22
2019-02-04T12:46:16.305Z,7.17
2019-02-04T12:47:16.355Z,7.22
2019-02-04T12:48:16.273Z,7.15
2019-02-04T12:49:16.220Z,7.24
2019-02-04T12:50:16.380Z,7.19
2019-02-04T12:51:16.169Z,7.13
2019-02-04T12:52:16.142Z,7.07
2019-02-04T12:53:16.123Z,6.98
2019-02-04T12:54:16.210Z,6.95
2019-02-04T12:55:16.070Z,6.98
2019-02-04T12:56:16.223Z,6.97
2019-02-04T12:57:16.031Z,6.98
2019-02-04T12:58:15.989Z,6.98
2019-02-04T12:59:16.141Z,6.98
2019-02-04T13:00:15.933Z,6.86
2019-02-04T13:01:16.056Z,6.86
2019-02-04T13:02:15.870Z,6.86
2019-02-04T13:03:15.851Z,6.86
2019-02-04T13:04:15.820Z,6.73
2019-02-04T13:05:15.980Z,6.76
2019-02-04T13:06:15.770Z,6.76
2019-02-04T13:07:15.891Z,6.72
2019-02-04T13:08:15.711Z,6.77
2019-02-04T13:09:15.679Z,6.79
2019-02-04T13:10:15.702Z,6.76
2019-02-04T13:11:15.631Z,6.79
2019-02-04T13:12:15.749Z,6.72
2019-02-04T13:13:15.582Z,6.73
2019-02-04T13:14:15.550Z,6.77
2019-02-04T13:15:15.519Z,6.71
2019-02-04T13:16:15.540Z,6.77
2019-02-04T13:17:15.460Z,6.69
2019-02-04T13:18:15.461Z,6.62